sensor_id;sensor_type;location;lat;lon;timestamp;P1;durP1;ratioP1;P2;durP2;ratioP2
3781;SDS011;6881;49.962;7.718;2023-08-30T00:01:28;14.10;;;12.40;;
3781;SDS011;6881;49.962;7.718;2023-08-30T00:03:53;16.20;;;14.50;;
3781;SDS011;6881;49.962;7.718;2023-08-30T00:06:19;18.03;;;13.87;;
3781;SDS011;6881;49.962;7.718;2023-08-30T00:08:44;17.13;;;12.77;;
3781;SDS011;6881;49.962;7.718;2023-08-30T00:11:10;16.17;;;12.93;;
3781;SDS011;6881;49.962;7.718;2023-08-30T00:13:35;15.43;;;12.03;;
3781;SDS011;6881;49.962;7.718;2023-08-30T00:16:00;13.50;;;12.07;;
3781;SDS011;6881;49.962;7.718;2023-08-30T00:18:27;14.20;;;12.43;;
3781;SDS011;6881;49.962;7.718;2023-08-30T00:20:53;16.63;;;12.57;;
3781;SDS011;6881;49.962;7.718;2023-08-30T00:23:18;14.77;;;12.73;;
3781;SDS011;6881;49.962;7.718;2023-08-30T00:25:43;15.90;;;14.23;;
3781;SDS011;6881;49.962;7.718;2023-08-30T00:28:09;14.63;;;12.43;;
3781;SDS011;6881;49.962;7.718;2023-08-30T00:30:34;15.07;;;13.53;;
3781;SDS011;6881;49.962;7.718;2023-08-30T00:33:00;15.73;;;12.70;;
3781;SDS011;6881;49.962;7.718;2023-08-30T00:35:25;17.60;;;13.10;;
3781;SDS011;6881;49.962;7.718;2023-08-30T00:37:50;20.13;;;13.07;;
3781;SDS011;6881;49.962;7.718;2023-08-30T00:40:15;14.17;;;12.67;;
3781;SDS011;6881;49.962;7.718;2023-08-30T00:42:41;16.93;;;12.87;;
3781;SDS011;6881;49.962;7.718;2023-08-30T00:45:06;15.60;;;12.97;;
3781;SDS011;6881;49.962;7.718;2023-08-30T00:47:32;14.93;;;12.10;;
3781;SDS011;6881;49.962;7.718;2023-08-30T00:49:57;18.07;;;13.07;;
3781;SDS011;6881;49.962;7.718;2023-08-30T00:52:23;18.13;;;13.87;;
3781;SDS011;6881;49.962;7.718;2023-08-30T00:54:49;15.23;;;12.27;;
3781;SDS011;6881;49.962;7.718;2023-08-30T00:57:14;14.30;;;11.70;;
3781;SDS011;6881;49.962;7.718;2023-08-30T00:59:40;12.40;;;10.93;;
3781;SDS011;6881;49.962;7.718;2023-08-30T01:02:05;15.80;;;12.00;;
3781;SDS011;6881;49.962;7.718;2023-08-30T01:04:31;15.10;;;12.00;;
3781;SDS011;6881;49.962;7.718;2023-08-30T01:06:56;15.40;;;11.23;;
3781;SDS011;6881;49.962;7.718;2023-08-30T01:09:22;13.20;;;11.07;;
3781;SDS011;6881;49.962;7.718;2023-08-30T01:11:55;14.03;;;10.80;;
3781;SDS011;6881;49.962;7.718;2023-08-30T01:17:23;12.10;;;10.30;;
3781;SDS011;6881;49.962;7.718;2023-08-30T01:19:57;13.67;;;11.17;;
3781;SDS011;6881;49.962;7.718;2023-08-30T01:25:12;12.60;;;11.00;;
3781;SDS011;6881;49.962;7.718;2023-08-30T01:27:40;12.77;;;10.17;;
3781;SDS011;6881;49.962;7.718;2023-08-30T01:30:06;12.23;;;10.90;;
3781;SDS011;6881;49.962;7.718;2023-08-30T01:32:33;13.73;;;11.03;;
3781;SDS011;6881;49.962;7.718;2023-08-30T01:34:59;15.20;;;11.40;;
3781;SDS011;6881;49.962;7.718;2023-08-30T01:37:24;13.00;;;10.87;;
3781;SDS011;6881;49.962;7.718;2023-08-30T01:39:50;13.17;;;11.70;;
3781;SDS011;6881;49.962;7.718;2023-08-30T01:42:17;12.50;;;11.20;;
3781;SDS011;6881;49.962;7.718;2023-08-30T01:44:47;14.93;;;11.83;;
3781;SDS011;6881;49.962;7.718;2023-08-30T01:47:12;12.63;;;11.30;;
3781;SDS011;6881;49.962;7.718;2023-08-30T01:49:38;15.40;;;11.40;;
3781;SDS011;6881;49.962;7.718;2023-08-30T01:52:04;16.70;;;11.83;;
3781;SDS011;6881;49.962;7.718;2023-08-30T01:54:31;12.87;;;10.87;;
3781;SDS011;6881;49.962;7.718;2023-08-30T01:56:57;15.63;;;11.90;;
3781;SDS011;6881;49.962;7.718;2023-08-30T01:59:23;15.13;;;12.20;;
3781;SDS011;6881;49.962;7.718;2023-08-30T02:01:49;12.13;;;10.87;;
3781;SDS011;6881;49.962;7.718;2023-08-30T02:04:14;13.40;;;12.00;;
3781;SDS011;6881;49.962;7.718;2023-08-30T02:06:48;14.67;;;10.97;;
3781;SDS011;6881;49.962;7.718;2023-08-30T02:09:19;11.60;;;10.30;;
3781;SDS011;6881;49.962;7.718;2023-08-30T02:11:49;15.03;;;11.60;;
3781;SDS011;6881;49.962;7.718;2023-08-30T02:14:16;14.23;;;11.30;;
3781;SDS011;6881;49.962;7.718;2023-08-30T02:16:42;16.40;;;12.07;;
3781;SDS011;6881;49.962;7.718;2023-08-30T02:19:08;15.57;;;10.87;;
3781;SDS011;6881;49.962;7.718;2023-08-30T02:21:34;11.93;;;10.73;;
3781;SDS011;6881;49.962;7.718;2023-08-30T02:23:59;15.30;;;11.70;;
3781;SDS011;6881;49.962;7.718;2023-08-30T02:26:24;15.93;;;12.50;;
3781;SDS011;6881;49.962;7.718;2023-08-30T02:28:50;13.70;;;11.27;;
3781;SDS011;6881;49.962;7.718;2023-08-30T02:31:15;14.80;;;10.90;;
3781;SDS011;6881;49.962;7.718;2023-08-30T02:33:40;14.00;;;11.60;;
3781;SDS011;6881;49.962;7.718;2023-08-30T02:36:05;13.47;;;11.17;;
3781;SDS011;6881;49.962;7.718;2023-08-30T02:38:31;13.77;;;11.20;;
3781;SDS011;6881;49.962;7.718;2023-08-30T02:40:56;13.83;;;12.33;;
3781;SDS011;6881;49.962;7.718;2023-08-30T02:43:22;12.93;;;11.00;;
3781;SDS011;6881;49.962;7.718;2023-08-30T02:45:47;13.63;;;12.17;;
3781;SDS011;6881;49.962;7.718;2023-08-30T02:48:13;11.80;;;10.10;;
3781;SDS011;6881;49.962;7.718;2023-08-30T02:50:39;11.57;;;9.13;;
3781;SDS011;6881;49.962;7.718;2023-08-30T02:53:04;11.60;;;10.40;;
3781;SDS011;6881;49.962;7.718;2023-08-30T02:55:33;11.30;;;10.10;;
3781;SDS011;6881;49.962;7.718;2023-08-30T02:57:58;11.83;;;9.33;;
3781;SDS011;6881;49.962;7.718;2023-08-30T03:00:23;11.27;;;10.07;;
3781;SDS011;6881;49.962;7.718;2023-08-30T03:02:49;11.77;;;9.67;;
3781;SDS011;6881;49.962;7.718;2023-08-30T03:05:14;11.63;;;10.00;;
3781;SDS011;6881;49.962;7.718;2023-08-30T03:07:39;13.33;;;10.27;;
3781;SDS011;6881;49.962;7.718;2023-08-30T03:10:05;13.17;;;11.30;;
3781;SDS011;6881;49.962;7.718;2023-08-30T03:12:31;11.87;;;10.10;;
3781;SDS011;6881;49.962;7.718;2023-08-30T03:14:56;13.47;;;10.07;;
3781;SDS011;6881;49.962;7.718;2023-08-30T03:17:21;14.63;;;10.50;;
3781;SDS011;6881;49.962;7.718;2023-08-30T03:19:47;14.30;;;9.97;;
3781;SDS011;6881;49.962;7.718;2023-08-30T03:22:12;14.83;;;11.70;;
3781;SDS011;6881;49.962;7.718;2023-08-30T03:24:37;15.47;;;11.67;;
3781;SDS011;6881;49.962;7.718;2023-08-30T03:27:02;14.30;;;11.53;;
3781;SDS011;6881;49.962;7.718;2023-08-30T03:29:28;14.20;;;10.03;;
3781;SDS011;6881;49.962;7.718;2023-08-30T03:31:54;13.47;;;10.27;;
3781;SDS011;6881;49.962;7.718;2023-08-30T03:34:19;12.60;;;10.70;;
3781;SDS011;6881;49.962;7.718;2023-08-30T03:36:44;17.07;;;12.23;;
3781;SDS011;6881;49.962;7.718;2023-08-30T03:39:15;17.20;;;13.13;;
3781;SDS011;6881;49.962;7.718;2023-08-30T03:41:40;13.73;;;11.77;;
3781;SDS011;6881;49.962;7.718;2023-08-30T03:44:06;12.80;;;11.50;;
3781;SDS011;6881;49.962;7.718;2023-08-30T03:46:31;17.00;;;12.63;;
3781;SDS011;6881;49.962;7.718;2023-08-30T03:48:57;16.00;;;13.50;;
3781;SDS011;6881;49.962;7.718;2023-08-30T03:51:22;22.10;;;13.70;;
3781;SDS011;6881;49.962;7.718;2023-08-30T03:53:47;14.97;;;12.40;;
3781;SDS011;6881;49.962;7.718;2023-08-30T03:56:12;15.27;;;11.67;;
3781;SDS011;6881;49.962;7.718;2023-08-30T03:58:38;14.03;;;12.20;;
3781;SDS011;6881;49.962;7.718;2023-08-30T04:01:03;14.50;;;12.10;;
3781;SDS011;6881;49.962;7.718;2023-08-30T04:03:29;18.80;;;13.30;;
3781;SDS011;6881;49.962;7.718;2023-08-30T04:05:54;17.77;;;12.83;;
3781;SDS011;6881;49.962;7.718;2023-08-30T04:08:21;15.27;;;12.67;;
3781;SDS011;6881;49.962;7.718;2023-08-30T04:10:46;18.60;;;12.50;;
3781;SDS011;6881;49.962;7.718;2023-08-30T04:13:13;16.73;;;13.00;;
3781;SDS011;6881;49.962;7.718;2023-08-30T04:15:38;15.40;;;13.80;;
3781;SDS011;6881;49.962;7.718;2023-08-30T04:18:05;15.10;;;12.77;;
3781;SDS011;6881;49.962;7.718;2023-08-30T04:20:31;15.77;;;13.30;;
3781;SDS011;6881;49.962;7.718;2023-08-30T04:22:57;16.50;;;12.70;;
3781;SDS011;6881;49.962;7.718;2023-08-30T04:25:23;16.13;;;12.70;;
3781;SDS011;6881;49.962;7.718;2023-08-30T04:27:49;17.03;;;14.27;;
3781;SDS011;6881;49.962;7.718;2023-08-30T04:30:15;13.60;;;11.50;;
3781;SDS011;6881;49.962;7.718;2023-08-30T04:32:40;15.40;;;12.30;;
3781;SDS011;6881;49.962;7.718;2023-08-30T04:35:06;15.90;;;13.00;;
3781;SDS011;6881;49.962;7.718;2023-08-30T04:37:31;13.70;;;11.20;;
3781;SDS011;6881;49.962;7.718;2023-08-30T04:39:57;14.87;;;11.77;;
3781;SDS011;6881;49.962;7.718;2023-08-30T04:42:22;12.53;;;10.20;;
3781;SDS011;6881;49.962;7.718;2023-08-30T04:44:47;11.93;;;10.53;;
3781;SDS011;6881;49.962;7.718;2023-08-30T04:47:13;10.90;;;9.17;;
3781;SDS011;6881;49.962;7.718;2023-08-30T04:49:38;14.00;;;10.60;;
3781;SDS011;6881;49.962;7.718;2023-08-30T04:52:04;11.43;;;8.93;;
3781;SDS011;6881;49.962;7.718;2023-08-30T04:54:29;10.97;;;9.87;;
3781;SDS011;6881;49.962;7.718;2023-08-30T04:56:55;12.73;;;9.70;;
3781;SDS011;6881;49.962;7.718;2023-08-30T04:59:20;11.13;;;9.27;;
3781;SDS011;6881;49.962;7.718;2023-08-30T05:01:45;10.57;;;9.10;;
3781;SDS011;6881;49.962;7.718;2023-08-30T05:04:10;11.87;;;9.70;;
3781;SDS011;6881;49.962;7.718;2023-08-30T05:06:37;11.43;;;9.23;;
3781;SDS011;6881;49.962;7.718;2023-08-30T05:09:02;11.17;;;8.63;;
3781;SDS011;6881;49.962;7.718;2023-08-30T05:11:28;13.57;;;10.47;;
3781;SDS011;6881;49.962;7.718;2023-08-30T05:13:54;11.70;;;8.90;;
3781;SDS011;6881;49.962;7.718;2023-08-30T05:16:19;10.33;;;8.50;;
3781;SDS011;6881;49.962;7.718;2023-08-30T05:18:45;11.17;;;9.37;;
3781;SDS011;6881;49.962;7.718;2023-08-30T05:21:10;15.23;;;8.77;;
3781;SDS011;6881;49.962;7.718;2023-08-30T05:23:35;9.30;;;8.13;;
3781;SDS011;6881;49.962;7.718;2023-08-30T05:26:00;11.80;;;9.40;;
3781;SDS011;6881;49.962;7.718;2023-08-30T05:28:26;12.73;;;9.47;;
3781;SDS011;6881;49.962;7.718;2023-08-30T05:30:51;10.60;;;9.17;;
3781;SDS011;6881;49.962;7.718;2023-08-30T05:33:16;12.83;;;9.03;;
3781;SDS011;6881;49.962;7.718;2023-08-30T05:35:42;10.50;;;8.90;;
3781;SDS011;6881;49.962;7.718;2023-08-30T05:38:07;10.87;;;8.33;;
3781;SDS011;6881;49.962;7.718;2023-08-30T05:40:32;11.63;;;9.23;;
3781;SDS011;6881;49.962;7.718;2023-08-30T05:42:58;12.00;;;9.20;;
3781;SDS011;6881;49.962;7.718;2023-08-30T05:45:23;11.73;;;9.67;;
3781;SDS011;6881;49.962;7.718;2023-08-30T05:47:48;8.40;;;7.60;;
3781;SDS011;6881;49.962;7.718;2023-08-30T05:50:13;8.97;;;8.07;;
3781;SDS011;6881;49.962;7.718;2023-08-30T05:52:39;9.00;;;8.10;;
3781;SDS011;6881;49.962;7.718;2023-08-30T05:55:06;10.87;;;8.97;;
3781;SDS011;6881;49.962;7.718;2023-08-30T05:57:33;10.10;;;8.87;;
3781;SDS011;6881;49.962;7.718;2023-08-30T05:59:59;9.57;;;8.60;;
3781;SDS011;6881;49.962;7.718;2023-08-30T06:02:24;9.77;;;8.77;;
3781;SDS011;6881;49.962;7.718;2023-08-30T06:04:50;15.27;;;9.13;;
3781;SDS011;6881;49.962;7.718;2023-08-30T06:07:15;15.10;;;8.90;;
3781;SDS011;6881;49.962;7.718;2023-08-30T06:09:40;9.80;;;8.27;;
3781;SDS011;6881;49.962;7.718;2023-08-30T06:12:06;12.90;;;8.70;;
3781;SDS011;6881;49.962;7.718;2023-08-30T06:14:31;13.10;;;7.33;;
3781;SDS011;6881;49.962;7.718;2023-08-30T06:16:56;10.43;;;8.67;;
3781;SDS011;6881;49.962;7.718;2023-08-30T06:19:22;11.20;;;8.00;;
3781;SDS011;6881;49.962;7.718;2023-08-30T06:21:47;10.07;;;8.97;;
3781;SDS011;6881;49.962;7.718;2023-08-30T06:24:13;9.27;;;8.10;;
3781;SDS011;6881;49.962;7.718;2023-08-30T06:26:38;12.73;;;8.70;;
3781;SDS011;6881;49.962;7.718;2023-08-30T06:29:03;9.37;;;8.13;;
3781;SDS011;6881;49.962;7.718;2023-08-30T06:31:29;9.20;;;8.30;;
3781;SDS011;6881;49.962;7.718;2023-08-30T06:33:54;8.93;;;8.03;;
3781;SDS011;6881;49.962;7.718;2023-08-30T06:36:20;9.80;;;7.60;;
3781;SDS011;6881;49.962;7.718;2023-08-30T06:38:47;9.00;;;8.10;;
3781;SDS011;6881;49.962;7.718;2023-08-30T06:41:13;9.37;;;7.77;;
3781;SDS011;6881;49.962;7.718;2023-08-30T06:43:38;8.63;;;7.70;;
3781;SDS011;6881;49.962;7.718;2023-08-30T06:46:03;8.50;;;7.70;;
3781;SDS011;6881;49.962;7.718;2023-08-30T06:48:29;8.47;;;7.57;;
3781;SDS011;6881;49.962;7.718;2023-08-30T06:50:56;7.20;;;6.60;;
3781;SDS011;6881;49.962;7.718;2023-08-30T06:53:23;8.07;;;7.27;;
3781;SDS011;6881;49.962;7.718;2023-08-30T06:56:01;7.67;;;6.57;;
3781;SDS011;6881;49.962;7.718;2023-08-30T06:58:27;7.50;;;6.80;;
3781;SDS011;6881;49.962;7.718;2023-08-30T07:00:52;7.10;;;6.40;;
3781;SDS011;6881;49.962;7.718;2023-08-30T07:03:18;7.50;;;6.80;;
3781;SDS011;6881;49.962;7.718;2023-08-30T07:05:43;7.97;;;7.10;;
3781;SDS011;6881;49.962;7.718;2023-08-30T07:08:09;6.93;;;6.23;;
3781;SDS011;6881;49.962;7.718;2023-08-30T07:10:34;9.70;;;7.43;;
3781;SDS011;6881;49.962;7.718;2023-08-30T07:12:59;8.13;;;7.33;;
3781;SDS011;6881;49.962;7.718;2023-08-30T07:15:25;7.90;;;7.20;;
3781;SDS011;6881;49.962;7.718;2023-08-30T07:17:50;8.00;;;7.10;;
3781;SDS011;6881;49.962;7.718;2023-08-30T07:20:15;8.67;;;6.80;;
3781;SDS011;6881;49.962;7.718;2023-08-30T07:22:41;9.20;;;8.07;;
3781;SDS011;6881;49.962;7.718;2023-08-30T07:25:06;9.40;;;7.97;;
3781;SDS011;6881;49.962;7.718;2023-08-30T07:27:33;8.60;;;6.77;;
3781;SDS011;6881;49.962;7.718;2023-08-30T07:29:58;8.23;;;7.27;;
3781;SDS011;6881;49.962;7.718;2023-08-30T07:32:24;7.20;;;6.50;;
3781;SDS011;6881;49.962;7.718;2023-08-30T07:34:49;9.67;;;7.43;;
3781;SDS011;6881;49.962;7.718;2023-08-30T07:37:18;6.90;;;6.20;;
3781;SDS011;6881;49.962;7.718;2023-08-30T07:39:45;8.20;;;7.40;;
3781;SDS011;6881;49.962;7.718;2023-08-30T07:42:10;9.00;;;8.10;;
3781;SDS011;6881;49.962;7.718;2023-08-30T07:44:35;6.63;;;5.90;;
3781;SDS011;6881;49.962;7.718;2023-08-30T07:47:01;7.40;;;6.70;;
3781;SDS011;6881;49.962;7.718;2023-08-30T07:49:26;7.60;;;6.90;;
3781;SDS011;6881;49.962;7.718;2023-08-30T07:51:51;7.30;;;6.60;;
3781;SDS011;6881;49.962;7.718;2023-08-30T07:54:16;8.57;;;7.67;;
3781;SDS011;6881;49.962;7.718;2023-08-30T07:56:42;7.10;;;6.50;;
3781;SDS011;6881;49.962;7.718;2023-08-30T07:59:07;7.80;;;7.00;;
3781;SDS011;6881;49.962;7.718;2023-08-30T08:01:32;6.47;;;5.87;;
3781;SDS011;6881;49.962;7.718;2023-08-30T08:03:58;7.13;;;6.47;;
3781;SDS011;6881;49.962;7.718;2023-08-30T08:06:23;6.27;;;5.67;;
3781;SDS011;6881;49.962;7.718;2023-08-30T08:08:48;5.80;;;5.30;;
3781;SDS011;6881;49.962;7.718;2023-08-30T08:11:14;6.83;;;6.23;;
3781;SDS011;6881;49.962;7.718;2023-08-30T08:13:39;6.23;;;5.37;;
3781;SDS011;6881;49.962;7.718;2023-08-30T08:16:05;6.10;;;5.60;;
3781;SDS011;6881;49.962;7.718;2023-08-30T08:18:30;5.87;;;5.27;;
3781;SDS011;6881;49.962;7.718;2023-08-30T08:20:55;6.17;;;5.47;;
3781;SDS011;6881;49.962;7.718;2023-08-30T08:23:21;5.27;;;4.70;;
3781;SDS011;6881;49.962;7.718;2023-08-30T08:25:46;5.30;;;4.80;;
3781;SDS011;6881;49.962;7.718;2023-08-30T08:28:11;6.37;;;5.20;;
3781;SDS011;6881;49.962;7.718;2023-08-30T08:30:36;5.70;;;5.20;;
3781;SDS011;6881;49.962;7.718;2023-08-30T08:33:02;5.17;;;4.70;;
3781;SDS011;6881;49.962;7.718;2023-08-30T08:35:27;5.10;;;4.60;;
3781;SDS011;6881;49.962;7.718;2023-08-30T08:37:52;4.63;;;4.10;;
3781;SDS011;6881;49.962;7.718;2023-08-30T08:40:18;5.10;;;3.80;;
3781;SDS011;6881;49.962;7.718;2023-08-30T08:42:43;4.60;;;4.20;;
3781;SDS011;6881;49.962;7.718;2023-08-30T08:45:09;4.57;;;4.17;;
3781;SDS011;6881;49.962;7.718;2023-08-30T08:47:36;3.70;;;3.40;;
3781;SDS011;6881;49.962;7.718;2023-08-30T08:50:02;5.80;;;3.70;;
3781;SDS011;6881;49.962;7.718;2023-08-30T08:52:28;4.03;;;3.50;;
3781;SDS011;6881;49.962;7.718;2023-08-30T08:54:55;4.50;;;4.10;;
3781;SDS011;6881;49.962;7.718;2023-08-30T08:57:21;4.40;;;3.97;;
3781;SDS011;6881;49.962;7.718;2023-08-30T08:59:46;4.10;;;3.70;;
3781;SDS011;6881;49.962;7.718;2023-08-30T09:02:12;3.57;;;3.27;;
3781;SDS011;6881;49.962;7.718;2023-08-30T09:04:38;3.73;;;3.23;;
3781;SDS011;6881;49.962;7.718;2023-08-30T09:07:04;4.60;;;4.13;;
3781;SDS011;6881;49.962;7.718;2023-08-30T09:09:29;4.70;;;4.27;;
3781;SDS011;6881;49.962;7.718;2023-08-30T09:11:55;3.80;;;3.50;;
3781;SDS011;6881;49.962;7.718;2023-08-30T09:14:21;4.27;;;3.87;;
3781;SDS011;6881;49.962;7.718;2023-08-30T09:16:59;5.43;;;4.23;;
3781;SDS011;6881;49.962;7.718;2023-08-30T09:19:28;4.50;;;4.10;;
3781;SDS011;6881;49.962;7.718;2023-08-30T09:21:55;4.47;;;3.80;;
3781;SDS011;6881;49.962;7.718;2023-08-30T09:24:21;4.37;;;3.77;;
3781;SDS011;6881;49.962;7.718;2023-08-30T09:26:47;4.03;;;3.70;;
3781;SDS011;6881;49.962;7.718;2023-08-30T09:29:15;4.00;;;3.70;;
3781;SDS011;6881;49.962;7.718;2023-08-30T09:31:41;4.27;;;3.03;;
3781;SDS011;6881;49.962;7.718;2023-08-30T09:34:07;3.97;;;3.57;;
3781;SDS011;6881;49.962;7.718;2023-08-30T09:36:33;4.60;;;3.70;;
3781;SDS011;6881;49.962;7.718;2023-08-30T09:39:05;4.00;;;3.70;;
3781;SDS011;6881;49.962;7.718;2023-08-30T09:41:32;3.60;;;3.30;;
3781;SDS011;6881;49.962;7.718;2023-08-30T09:44:06;3.90;;;3.50;;
3781;SDS011;6881;49.962;7.718;2023-08-30T09:46:32;3.73;;;3.10;;
3781;SDS011;6881;49.962;7.718;2023-08-30T09:48:57;5.20;;;2.70;;
3781;SDS011;6881;49.962;7.718;2023-08-30T09:51:23;3.47;;;3.17;;
3781;SDS011;6881;49.962;7.718;2023-08-30T09:53:49;5.40;;;3.03;;
3781;SDS011;6881;49.962;7.718;2023-08-30T09:56:19;3.43;;;3.13;;
3781;SDS011;6881;49.962;7.718;2023-08-30T09:58:46;3.23;;;2.60;;
3781;SDS011;6881;49.962;7.718;2023-08-30T10:01:11;3.40;;;2.97;;
3781;SDS011;6881;49.962;7.718;2023-08-30T10:03:37;3.10;;;2.80;;
3781;SDS011;6881;49.962;7.718;2023-08-30T10:06:02;3.07;;;2.87;;
3781;SDS011;6881;49.962;7.718;2023-08-30T10:08:30;3.10;;;2.90;;
3781;SDS011;6881;49.962;7.718;2023-08-30T10:10:58;5.93;;;3.60;;
3781;SDS011;6881;49.962;7.718;2023-08-30T10:13:23;3.63;;;2.70;;
3781;SDS011;6881;49.962;7.718;2023-08-30T10:15:50;4.10;;;3.20;;
3781;SDS011;6881;49.962;7.718;2023-08-30T10:18:19;3.77;;;3.43;;
3781;SDS011;6881;49.962;7.718;2023-08-30T10:20:45;3.27;;;2.97;;
3781;SDS011;6881;49.962;7.718;2023-08-30T10:23:11;3.60;;;3.30;;
3781;SDS011;6881;49.962;7.718;2023-08-30T10:25:38;2.80;;;2.60;;
3781;SDS011;6881;49.962;7.718;2023-08-30T10:28:04;3.40;;;3.10;;
3781;SDS011;6881;49.962;7.718;2023-08-30T10:30:29;3.20;;;2.80;;
3781;SDS011;6881;49.962;7.718;2023-08-30T10:32:55;3.30;;;3.00;;
3781;SDS011;6881;49.962;7.718;2023-08-30T10:35:20;6.23;;;3.83;;
3781;SDS011;6881;49.962;7.718;2023-08-30T10:37:59;5.23;;;3.60;;
3781;SDS011;6881;49.962;7.718;2023-08-30T10:40:24;6.97;;;3.80;;
3781;SDS011;6881;49.962;7.718;2023-08-30T10:43:02;9.30;;;3.00;;
3781;SDS011;6881;49.962;7.718;2023-08-30T10:45:28;3.90;;;3.40;;
3781;SDS011;6881;49.962;7.718;2023-08-30T10:47:55;4.80;;;3.53;;
3781;SDS011;6881;49.962;7.718;2023-08-30T10:50:27;4.47;;;4.07;;
3781;SDS011;6881;49.962;7.718;2023-08-30T10:52:54;4.33;;;3.93;;
3781;SDS011;6881;49.962;7.718;2023-08-30T10:55:21;3.30;;;2.97;;
3781;SDS011;6881;49.962;7.718;2023-08-30T10:57:57;4.40;;;4.00;;
3781;SDS011;6881;49.962;7.718;2023-08-30T11:00:28;3.87;;;3.50;;
3781;SDS011;6881;49.962;7.718;2023-08-30T11:02:54;3.70;;;3.37;;
3781;SDS011;6881;49.962;7.718;2023-08-30T11:05:20;5.70;;;4.80;;
3781;SDS011;6881;49.962;7.718;2023-08-30T11:07:47;4.63;;;4.23;;
3781;SDS011;6881;49.962;7.718;2023-08-30T11:10:15;5.97;;;4.20;;
3781;SDS011;6881;49.962;7.718;2023-08-30T11:12:40;5.90;;;5.13;;
3781;SDS011;6881;49.962;7.718;2023-08-30T11:15:06;5.33;;;4.83;;
3781;SDS011;6881;49.962;7.718;2023-08-30T11:17:33;4.93;;;4.13;;
3781;SDS011;6881;49.962;7.718;2023-08-30T11:20:05;5.63;;;5.03;;
3781;SDS011;6881;49.962;7.718;2023-08-30T11:22:31;5.37;;;4.83;;
3781;SDS011;6881;49.962;7.718;2023-08-30T11:24:57;4.63;;;3.90;;
3781;SDS011;6881;49.962;7.718;2023-08-30T11:27:23;5.10;;;4.67;;
3781;SDS011;6881;49.962;7.718;2023-08-30T11:29:48;5.23;;;4.70;;
3781;SDS011;6881;49.962;7.718;2023-08-30T11:32:13;4.27;;;3.87;;
3781;SDS011;6881;49.962;7.718;2023-08-30T11:34:38;7.60;;;4.70;;
3781;SDS011;6881;49.962;7.718;2023-08-30T11:37:04;4.57;;;4.17;;
3781;SDS011;6881;49.962;7.718;2023-08-30T11:39:29;4.30;;;3.90;;
3781;SDS011;6881;49.962;7.718;2023-08-30T11:41:56;5.60;;;5.03;;
3781;SDS011;6881;49.962;7.718;2023-08-30T11:44:22;5.60;;;4.40;;
3781;SDS011;6881;49.962;7.718;2023-08-30T11:46:48;4.27;;;3.87;;
3781;SDS011;6881;49.962;7.718;2023-08-30T11:49:14;5.60;;;4.67;;
3781;SDS011;6881;49.962;7.718;2023-08-30T11:51:40;5.10;;;4.43;;
3781;SDS011;6881;49.962;7.718;2023-08-30T11:54:05;7.03;;;4.77;;
3781;SDS011;6881;49.962;7.718;2023-08-30T11:56:32;5.87;;;4.37;;
3781;SDS011;6881;49.962;7.718;2023-08-30T11:58:58;5.23;;;3.90;;
3781;SDS011;6881;49.962;7.718;2023-08-30T12:01:24;5.83;;;4.37;;
3781;SDS011;6881;49.962;7.718;2023-08-30T12:03:49;6.30;;;4.40;;
3781;SDS011;6881;49.962;7.718;2023-08-30T12:06:15;6.40;;;4.50;;
3781;SDS011;6881;49.962;7.718;2023-08-30T12:08:41;4.97;;;3.93;;
3781;SDS011;6881;49.962;7.718;2023-08-30T12:11:16;4.43;;;4.03;;
3781;SDS011;6881;49.962;7.718;2023-08-30T12:13:42;6.57;;;4.23;;
3781;SDS011;6881;49.962;7.718;2023-08-30T12:16:07;5.17;;;4.13;;
3781;SDS011;6881;49.962;7.718;2023-08-30T12:18:33;8.43;;;5.27;;
3781;SDS011;6881;49.962;7.718;2023-08-30T12:21:00;5.43;;;4.10;;
3781;SDS011;6881;49.962;7.718;2023-08-30T12:23:27;4.93;;;4.43;;
3781;SDS011;6881;49.962;7.718;2023-08-30T12:25:58;5.77;;;4.40;;
3781;SDS011;6881;49.962;7.718;2023-08-30T12:28:25;6.07;;;5.23;;
3781;SDS011;6881;49.962;7.718;2023-08-30T12:30:51;5.17;;;4.57;;
3781;SDS011;6881;49.962;7.718;2023-08-30T12:33:16;6.73;;;4.50;;
3781;SDS011;6881;49.962;7.718;2023-08-30T12:35:42;9.50;;;5.20;;
3781;SDS011;6881;49.962;7.718;2023-08-30T12:38:08;5.80;;;4.27;;
3781;SDS011;6881;49.962;7.718;2023-08-30T12:40:34;5.70;;;4.23;;
3781;SDS011;6881;49.962;7.718;2023-08-30T12:43:00;7.73;;;4.43;;
3781;SDS011;6881;49.962;7.718;2023-08-30T12:45:25;6.07;;;4.83;;
3781;SDS011;6881;49.962;7.718;2023-08-30T12:47:50;5.40;;;4.87;;
3781;SDS011;6881;49.962;7.718;2023-08-30T12:50:16;6.73;;;4.60;;
3781;SDS011;6881;49.962;7.718;2023-08-30T12:52:41;5.40;;;4.30;;
3781;SDS011;6881;49.962;7.718;2023-08-30T12:55:06;5.30;;;4.60;;
3781;SDS011;6881;49.962;7.718;2023-08-30T12:57:32;5.13;;;4.50;;
3781;SDS011;6881;49.962;7.718;2023-08-30T12:59:57;4.73;;;4.27;;
3781;SDS011;6881;49.962;7.718;2023-08-30T13:02:22;4.70;;;4.30;;
3781;SDS011;6881;49.962;7.718;2023-08-30T13:04:48;6.30;;;4.47;;
3781;SDS011;6881;49.962;7.718;2023-08-30T13:07:13;5.47;;;4.50;;
3781;SDS011;6881;49.962;7.718;2023-08-30T13:09:38;5.37;;;4.47;;
3781;SDS011;6881;49.962;7.718;2023-08-30T13:12:04;6.83;;;4.30;;
3781;SDS011;6881;49.962;7.718;2023-08-30T13:14:29;5.70;;;4.93;;
3781;SDS011;6881;49.962;7.718;2023-08-30T13:16:54;6.17;;;3.93;;
3781;SDS011;6881;49.962;7.718;2023-08-30T13:19:20;4.27;;;3.87;;
3781;SDS011;6881;49.962;7.718;2023-08-30T13:21:45;4.30;;;3.37;;
3781;SDS011;6881;49.962;7.718;2023-08-30T13:24:10;4.73;;;4.00;;
3781;SDS011;6881;49.962;7.718;2023-08-30T13:26:36;5.27;;;4.77;;
3781;SDS011;6881;49.962;7.718;2023-08-30T13:29:01;5.30;;;4.03;;
3781;SDS011;6881;49.962;7.718;2023-08-30T13:31:29;7.10;;;4.70;;
3781;SDS011;6881;49.962;7.718;2023-08-30T13:33:54;5.07;;;4.07;;
3781;SDS011;6881;49.962;7.718;2023-08-30T13:36:20;5.67;;;3.80;;
3781;SDS011;6881;49.962;7.718;2023-08-30T13:38:45;4.77;;;3.80;;
3781;SDS011;6881;49.962;7.718;2023-08-30T13:41:10;5.50;;;3.50;;
3781;SDS011;6881;49.962;7.718;2023-08-30T13:43:36;5.53;;;3.40;;
3781;SDS011;6881;49.962;7.718;2023-08-30T13:46:01;4.33;;;2.93;;
3781;SDS011;6881;49.962;7.718;2023-08-30T13:48:27;5.03;;;3.33;;
3781;SDS011;6881;49.962;7.718;2023-08-30T13:50:52;5.60;;;3.43;;
3781;SDS011;6881;49.962;7.718;2023-08-30T13:53:17;4.77;;;3.93;;
3781;SDS011;6881;49.962;7.718;2023-08-30T13:55:46;5.80;;;3.10;;
3781;SDS011;6881;49.962;7.718;2023-08-30T13:58:13;3.73;;;3.13;;
3781;SDS011;6881;49.962;7.718;2023-08-30T14:00:39;5.00;;;3.33;;
3781;SDS011;6881;49.962;7.718;2023-08-30T14:03:04;3.80;;;3.40;;
3781;SDS011;6881;49.962;7.718;2023-08-30T14:05:29;3.57;;;2.90;;
3781;SDS011;6881;49.962;7.718;2023-08-30T14:07:55;6.00;;;3.63;;
3781;SDS011;6881;49.962;7.718;2023-08-30T14:10:20;4.37;;;3.27;;
3781;SDS011;6881;49.962;7.718;2023-08-30T14:12:45;5.33;;;3.90;;
3781;SDS011;6881;49.962;7.718;2023-08-30T14:15:10;3.67;;;3.10;;
3781;SDS011;6881;49.962;7.718;2023-08-30T14:17:36;5.20;;;3.50;;
3781;SDS011;6881;49.962;7.718;2023-08-30T14:20:01;4.10;;;3.10;;
3781;SDS011;6881;49.962;7.718;2023-08-30T14:22:27;4.53;;;3.67;;
3781;SDS011;6881;49.962;7.718;2023-08-30T14:24:52;3.83;;;3.13;;
3781;SDS011;6881;49.962;7.718;2023-08-30T14:27:17;4.93;;;3.37;;
3781;SDS011;6881;49.962;7.718;2023-08-30T14:29:42;7.80;;;3.33;;
3781;SDS011;6881;49.962;7.718;2023-08-30T14:32:08;4.43;;;3.50;;
3781;SDS011;6881;49.962;7.718;2023-08-30T14:34:33;4.10;;;3.30;;
3781;SDS011;6881;49.962;7.718;2023-08-30T14:36:58;3.70;;;3.40;;
3781;SDS011;6881;49.962;7.718;2023-08-30T14:39:24;3.70;;;3.00;;
3781;SDS011;6881;49.962;7.718;2023-08-30T14:41:49;4.87;;;3.40;;
3781;SDS011;6881;49.962;7.718;2023-08-30T14:44:14;5.63;;;4.23;;
3781;SDS011;6881;49.962;7.718;2023-08-30T14:46:40;3.67;;;3.20;;
3781;SDS011;6881;49.962;7.718;2023-08-30T14:49:05;3.30;;;2.80;;
3781;SDS011;6881;49.962;7.718;2023-08-30T14:51:30;7.70;;;2.90;;
3781;SDS011;6881;49.962;7.718;2023-08-30T14:53:56;5.10;;;3.30;;
3781;SDS011;6881;49.962;7.718;2023-08-30T14:56:21;5.23;;;2.53;;
3781;SDS011;6881;49.962;7.718;2023-08-30T14:58:46;3.23;;;2.87;;
3781;SDS011;6881;49.962;7.718;2023-08-30T15:01:14;4.87;;;3.27;;
3781;SDS011;6881;49.962;7.718;2023-08-30T15:03:40;5.20;;;3.57;;